sensor_id;sensor_type;location;lat;lon;timestamp;temperature;humidity
9305;DHT22;4690;52.422;13.486;2023-04-03T00:04:24;1.30;99.90
9305;DHT22;4690;52.422;13.486;2023-04-03T00:06:50;1.30;99.90
9305;DHT22;4690;52.422;13.486;2023-04-03T00:09:15;1.30;99.90
9305;DHT22;4690;52.422;13.486;2023-04-03T00:11:41;1.30;99.90
9305;DHT22;4690;52.422;13.486;2023-04-03T00:14:07;1.20;99.90
9305;DHT22;4690;52.422;13.486;2023-04-03T00:16:32;1.20;99.90
9305;DHT22;4690;52.422;13.486;2023-04-03T00:18:58;1.20;99.90
9305;DHT22;4690;52.422;13.486;2023-04-03T00:21:24;1.20;99.90
9305;DHT22;4690;52.422;13.486;2023-04-03T00:23:50;1.20;99.90
9305;DHT22;4690;52.422;13.486;2023-04-03T00:26:16;1.20;99.90
9305;DHT22;4690;52.422;13.486;2023-04-03T00:28:42;1.20;99.90
9305;DHT22;4690;52.422;13.486;2023-04-03T00:31:07;1.20;99.90
9305;DHT22;4690;52.422;13.486;2023-04-03T00:33:33;1.10;99.90
9305;DHT22;4690;52.422;13.486;2023-04-03T00:35:59;1.10;99.90
9305;DHT22;4690;52.422;13.486;2023-04-03T00:38:25;1.10;99.90
9305;DHT22;4690;52.422;13.486;2023-04-03T00:40:50;1.10;99.90
9305;DHT22;4690;52.422;13.486;2023-04-03T00:43:22;1.10;99.90
9305;DHT22;4690;52.422;13.486;2023-04-03T00:45:57;1.10;99.90
9305;DHT22;4690;52.422;13.486;2023-04-03T00:48:30;1.10;99.90
9305;DHT22;4690;52.422;13.486;2023-04-03T00:51:00;1.10;99.90
9305;DHT22;4690;52.422;13.486;2023-04-03T00:53:40;1.10;99.90
9305;DHT22;4690;52.422;13.486;2023-04-03T00:56:27;1.10;99.90
9305;DHT22;4690;52.422;13.486;2023-04-03T00:59:01;1.00;99.90
9305;DHT22;4690;52.422;13.486;2023-04-03T01:01:36;1.00;99.90
9305;DHT22;4690;52.422;13.486;2023-04-03T01:04:04;1.00;99.90
9305;DHT22;4690;52.422;13.486;2023-04-03T01:06:36;1.00;99.90
9305;DHT22;4690;52.422;13.486;2023-04-03T01:09:03;1.00;99.90
9305;DHT22;4690;52.422;13.486;2023-04-03T01:11:30;0.90;99.90
9305;DHT22;4690;52.422;13.486;2023-04-03T01:13:56;0.90;99.90
9305;DHT22;4690;52.422;13.486;2023-04-03T01:16:21;1.00;99.90
9305;DHT22;4690;52.422;13.486;2023-04-03T01:18:48;0.90;99.90
9305;DHT22;4690;52.422;13.486;2023-04-03T01:24:36;0.80;99.90
9305;DHT22;4690;52.422;13.486;2023-04-03T01:27:06;0.80;99.90
9305;DHT22;4690;52.422;13.486;2023-04-03T01:29:35;0.80;99.90
9305;DHT22;4690;52.422;13.486;2023-04-03T01:32:02;0.80;99.90
9305;DHT22;4690;52.422;13.486;2023-04-03T01:34:30;0.80;99.90
9305;DHT22;4690;52.422;13.486;2023-04-03T01:36:56;0.80;99.90
9305;DHT22;4690;52.422;13.486;2023-04-03T01:39:22;0.70;99.90
9305;DHT22;4690;52.422;13.486;2023-04-03T01:41:48;0.60;99.90
9305;DHT22;4690;52.422;13.486;2023-04-03T01:44:15;0.50;99.90
9305;DHT22;4690;52.422;13.486;2023-04-03T01:46:40;0.40;99.90
9305;DHT22;4690;52.422;13.486;2023-04-03T01:49:07;0.40;99.90
9305;DHT22;4690;52.422;13.486;2023-04-03T01:51:33;0.40;99.90
9305;DHT22;4690;52.422;13.486;2023-04-03T01:53:59;0.40;99.90
9305;DHT22;4690;52.422;13.486;2023-04-03T01:56:25;0.40;99.90
9305;DHT22;4690;52.422;13.486;2023-04-03T01:58:52;0.30;99.90
9305;DHT22;4690;52.422;13.486;2023-04-03T02:01:17;0.30;99.90
9305;DHT22;4690;52.422;13.486;2023-04-03T02:03:43;0.30;99.90
9305;DHT22;4690;52.422;13.486;2023-04-03T02:06:09;0.30;99.90
9305;DHT22;4690;52.422;13.486;2023-04-03T02:08:35;0.40;99.90
9305;DHT22;4690;52.422;13.486;2023-04-03T02:11:01;0.40;99.90
9305;DHT22;4690;52.422;13.486;2023-04-03T02:13:26;0.40;99.90
9305;DHT22;4690;52.422;13.486;2023-04-03T02:15:52;0.50;99.90
9305;DHT22;4690;52.422;13.486;2023-04-03T02:18:18;0.40;99.90
9305;DHT22;4690;52.422;13.486;2023-04-03T02:20:45;0.50;99.90
9305;DHT22;4690;52.422;13.486;2023-04-03T02:23:11;0.40;99.90
9305;DHT22;4690;52.422;13.486;2023-04-03T02:25:37;0.40;99.90
9305;DHT22;4690;52.422;13.486;2023-04-03T02:28:03;0.40;99.90
9305;DHT22;4690;52.422;13.486;2023-04-03T02:30:29;0.40;99.90
9305;DHT22;4690;52.422;13.486;2023-04-03T02:32:54;0.30;99.90
9305;DHT22;4690;52.422;13.486;2023-04-03T02:35:21;0.30;99.90
9305;DHT22;4690;52.422;13.486;2023-04-03T02:37:47;0.30;99.90
9305;DHT22;4690;52.422;13.486;2023-04-03T02:40:13;0.30;99.90
9305;DHT22;4690;52.422;13.486;2023-04-03T02:42:38;0.20;99.90
9305;DHT22;4690;52.422;13.486;2023-04-03T02:45:05;0.20;99.90
9305;DHT22;4690;52.422;13.486;2023-04-03T02:47:31;0.30;99.90
9305;DHT22;4690;52.422;13.486;2023-04-03T02:49:57;0.30;99.90
9305;DHT22;4690;52.422;13.486;2023-04-03T02:52:23;0.20;99.90
9305;DHT22;4690;52.422;13.486;2023-04-03T02:54:48;0.20;99.90
9305;DHT22;4690;52.422;13.486;2023-04-03T02:57:14;0.20;99.90
9305;DHT22;4690;52.422;13.486;2023-04-03T02:59:40;0.20;99.90
9305;DHT22;4690;52.422;13.486;2023-04-03T03:02:09;0.30;99.90
9305;DHT22;4690;52.422;13.486;2023-04-03T03:04:35;0.20;99.90
9305;DHT22;4690;52.422;13.486;2023-04-03T03:07:02;0.20;99.90
9305;DHT22;4690;52.422;13.486;2023-04-03T03:09:29;0.20;99.90
9305;DHT22;4690;52.422;13.486;2023-04-03T03:11:56;0.20;99.90
9305;DHT22;4690;52.422;13.486;2023-04-03T03:14:22;0.20;99.90
9305;DHT22;4690;52.422;13.486;2023-04-03T03:16:48;0.20;99.90
9305;DHT22;4690;52.422;13.486;2023-04-03T03:19:14;0.20;99.90
9305;DHT22;4690;52.422;13.486;2023-04-03T03:21:40;0.20;99.90
9305;DHT22;4690;52.422;13.486;2023-04-03T03:24:06;0.10;99.90
9305;DHT22;4690;52.422;13.486;2023-04-03T03:26:32;0.20;99.90
9305;DHT22;4690;52.422;13.486;2023-04-03T03:28:58;0.20;99.90
9305;DHT22;4690;52.422;13.486;2023-04-03T03:31:23;0.20;99.90
9305;DHT22;4690;52.422;13.486;2023-04-03T03:33:49;0.10;99.90
9305;DHT22;4690;52.422;13.486;2023-04-03T03:36:15;0.10;99.90
9305;DHT22;4690;52.422;13.486;2023-04-03T03:38:41;0.10;99.90
9305;DHT22;4690;52.422;13.486;2023-04-03T03:41:07;0.10;99.90
9305;DHT22;4690;52.422;13.486;2023-04-03T03:43:33;0.10;99.90
9305;DHT22;4690;52.422;13.486;2023-04-03T03:45:58;0.10;99.90
9305;DHT22;4690;52.422;13.486;2023-04-03T03:48:24;0.00;99.90
9305;DHT22;4690;52.422;13.486;2023-04-03T03:50:50;0.00;99.90
9305;DHT22;4690;52.422;13.486;2023-04-03T03:53:16;-0.10;99.90
9305;DHT22;4690;52.422;13.486;2023-04-03T03:55:42;-0.10;99.90
9305;DHT22;4690;52.422;13.486;2023-04-03T03:58:08;-0.10;99.90
9305;DHT22;4690;52.422;13.486;2023-04-03T04:00:33;-0.10;99.90
9305;DHT22;4690;52.422;13.486;2023-04-03T04:02:59;-0.10;99.90
9305;DHT22;4690;52.422;13.486;2023-04-03T04:05:26;-0.20;99.90
9305;DHT22;4690;52.422;13.486;2023-04-03T04:07:52;-0.20;99.90
9305;DHT22;4690;52.422;13.486;2023-04-03T04:10:17;-0.20;99.90
9305;DHT22;4690;52.422;13.486;2023-04-03T04:12:43;-0.20;99.90
9305;DHT22;4690;52.422;13.486;2023-04-03T04:15:09;-0.20;99.90
9305;DHT22;4690;52.422;13.486;2023-04-03T04:17:36;-0.20;99.90
9305;DHT22;4690;52.422;13.486;2023-04-03T04:20:03;-0.20;99.90
9305;DHT22;4690;52.422;13.486;2023-04-03T04:22:30;-0.20;99.90
9305;DHT22;4690;52.422;13.486;2023-04-03T04:24:56;-0.30;99.90
9305;DHT22;4690;52.422;13.486;2023-04-03T04:27:21;-0.20;99.90
9305;DHT22;4690;52.422;13.486;2023-04-03T04:29:47;-0.20;99.90
9305;DHT22;4690;52.422;13.486;2023-04-03T04:32:13;-0.30;99.90
9305;DHT22;4690;52.422;13.486;2023-04-03T04:34:39;-0.30;99.90
9305;DHT22;4690;52.422;13.486;2023-04-03T04:37:05;-0.30;99.90
9305;DHT22;4690;52.422;13.486;2023-04-03T04:39:30;-0.30;99.90
9305;DHT22;4690;52.422;13.486;2023-04-03T04:41:56;-0.30;99.90
9305;DHT22;4690;52.422;13.486;2023-04-03T04:44:22;-0.30;99.90
9305;DHT22;4690;52.422;13.486;2023-04-03T04:46:48;-0.30;99.90
9305;DHT22;4690;52.422;13.486;2023-04-03T04:49:13;-0.30;99.90
9305;DHT22;4690;52.422;13.486;2023-04-03T04:51:39;-0.30;99.90
9305;DHT22;4690;52.422;13.486;2023-04-03T04:54:05;-0.20;99.90
9305;DHT22;4690;52.422;13.486;2023-04-03T04:56:31;-0.30;99.90
9305;DHT22;4690;52.422;13.486;2023-04-03T04:58:56;-0.20;99.90
9305;DHT22;4690;52.422;13.486;2023-04-03T05:01:22;-0.20;99.90
9305;DHT22;4690;52.422;13.486;2023-04-03T05:03:48;-0.20;99.90
9305;DHT22;4690;52.422;13.486;2023-04-03T05:06:14;-0.20;99.90
9305;DHT22;4690;52.422;13.486;2023-04-03T05:08:39;-0.10;99.90
9305;DHT22;4690;52.422;13.486;2023-04-03T05:11:05;-0.10;99.90
9305;DHT22;4690;52.422;13.486;2023-04-03T05:13:31;0.00;99.90
9305;DHT22;4690;52.422;13.486;2023-04-03T05:15:57;0.00;99.90
9305;DHT22;4690;52.422;13.486;2023-04-03T05:18:22;0.00;99.90
9305;DHT22;4690;52.422;13.486;2023-04-03T05:20:49;0.00;99.90
9305;DHT22;4690;52.422;13.486;2023-04-03T05:23:16;0.10;99.90
9305;DHT22;4690;52.422;13.486;2023-04-03T05:25:42;0.20;99.90
9305;DHT22;4690;52.422;13.486;2023-04-03T05:28:11;0.20;99.90
9305;DHT22;4690;52.422;13.486;2023-04-03T05:30:37;0.30;99.90
9305;DHT22;4690;52.422;13.486;2023-04-03T05:33:02;0.40;99.90
9305;DHT22;4690;52.422;13.486;2023-04-03T05:35:28;0.50;99.90
9305;DHT22;4690;52.422;13.486;2023-04-03T05:37:54;0.60;99.90
9305;DHT22;4690;52.422;13.486;2023-04-03T05:40:20;0.70;99.90
9305;DHT22;4690;52.422;13.486;2023-04-03T05:42:46;0.80;99.90
9305;DHT22;4690;52.422;13.486;2023-04-03T05:45:12;0.90;99.90
9305;DHT22;4690;52.422;13.486;2023-04-03T05:47:38;1.20;99.90
9305;DHT22;4690;52.422;13.486;2023-04-03T05:50:04;1.40;99.90
9305;DHT22;4690;52.422;13.486;2023-04-03T05:52:35;1.50;99.90
9305;DHT22;4690;52.422;13.486;2023-04-03T05:55:02;1.80;99.90
9305;DHT22;4690;52.422;13.486;2023-04-03T05:57:28;2.10;99.90
9305;DHT22;4690;52.422;13.486;2023-04-03T05:59:54;2.30;99.90
9305;DHT22;4690;52.422;13.486;2023-04-03T06:02:22;2.50;99.90
9305;DHT22;4690;52.422;13.486;2023-04-03T06:04:49;2.70;99.90
9305;DHT22;4690;52.422;13.486;2023-04-03T06:07:18;3.00;99.90
9305;DHT22;4690;52.422;13.486;2023-04-03T06:09:46;3.10;99.90
9305;DHT22;4690;52.422;13.486;2023-04-03T06:12:13;3.20;99.90
9305;DHT22;4690;52.422;13.486;2023-04-03T06:14:38;3.20;99.90
9305;DHT22;4690;52.422;13.486;2023-04-03T06:17:04;3.40;99.90
9305;DHT22;4690;52.422;13.486;2023-04-03T06:19:31;3.60;99.90
9305;DHT22;4690;52.422;13.486;2023-04-03T06:21:57;4.00;99.90
9305;DHT22;4690;52.422;13.486;2023-04-03T06:24:23;4.10;99.90
9305;DHT22;4690;52.422;13.486;2023-04-03T06:26:51;4.30;99.90
9305;DHT22;4690;52.422;13.486;2023-04-03T06:29:18;4.60;99.90
9305;DHT22;4690;52.422;13.486;2023-04-03T06:31:45;5.10;99.90
9305;DHT22;4690;52.422;13.486;2023-04-03T06:34:12;5.30;99.90
9305;DHT22;4690;52.422;13.486;2023-04-03T06:36:38;5.60;99.90
9305;DHT22;4690;52.422;13.486;2023-04-03T06:39:05;5.20;99.90
9305;DHT22;4690;52.422;13.486;2023-04-03T06:41:32;5.00;99.90
9305;DHT22;4690;52.422;13.486;2023-04-03T06:43:58;4.90;99.90
9305;DHT22;4690;52.422;13.486;2023-04-03T06:46:26;5.10;99.90
9305;DHT22;4690;52.422;13.486;2023-04-03T06:48:52;5.10;99.90
9305;DHT22;4690;52.422;13.486;2023-04-03T06:51:21;5.40;99.90
9305;DHT22;4690;52.422;13.486;2023-04-03T06:53:50;5.80;99.90
9305;DHT22;4690;52.422;13.486;2023-04-03T06:56:17;6.30;99.90
9305;DHT22;4690;52.422;13.486;2023-04-03T06:58:44;6.10;99.90
9305;DHT22;4690;52.422;13.486;2023-04-03T07:01:12;6.40;99.90
9305;DHT22;4690;52.422;13.486;2023-04-03T07:03:40;6.70;99.90
9305;DHT22;4690;52.422;13.486;2023-04-03T07:06:07;6.90;99.90
9305;DHT22;4690;52.422;13.486;2023-04-03T07:08:36;6.70;99.90
9305;DHT22;4690;52.422;13.486;2023-04-03T07:11:02;6.90;99.90
9305;DHT22;4690;52.422;13.486;2023-04-03T07:13:29;6.80;99.90
9305;DHT22;4690;52.422;13.486;2023-04-03T07:15:55;7.30;99.90
9305;DHT22;4690;52.422;13.486;2023-04-03T07:18:21;7.70;99.90
9305;DHT22;4690;52.422;13.486;2023-04-03T07:20:47;7.90;99.90
9305;DHT22;4690;52.422;13.486;2023-04-03T07:23:13;7.90;99.90
9305;DHT22;4690;52.422;13.486;2023-04-03T07:25:46;8.10;99.90
9305;DHT22;4690;52.422;13.486;2023-04-03T07:28:13;7.80;99.90
9305;DHT22;4690;52.422;13.486;2023-04-03T07:30:49;7.50;99.90
9305;DHT22;4690;52.422;13.486;2023-04-03T07:33:17;6.30;99.90
9305;DHT22;4690;52.422;13.486;2023-04-03T07:35:45;6.80;99.90
9305;DHT22;4690;52.422;13.486;2023-04-03T07:38:12;6.80;99.90
9305;DHT22;4690;52.422;13.486;2023-04-03T07:40:38;6.20;99.90
9305;DHT22;4690;52.422;13.486;2023-04-03T07:43:05;5.80;99.90
9305;DHT22;4690;52.422;13.486;2023-04-03T07:45:34;4.80;99.90
9305;DHT22;4690;52.422;13.486;2023-04-03T07:48:01;4.60;99.90
9305;DHT22;4690;52.422;13.486;2023-04-03T07:50:28;4.70;99.90
9305;DHT22;4690;52.422;13.486;2023-04-03T07:52:55;4.10;99.90
9305;DHT22;4690;52.422;13.486;2023-04-03T07:55:23;3.70;99.90
9305;DHT22;4690;52.422;13.486;2023-04-03T07:57:49;3.70;99.90
9305;DHT22;4690;52.422;13.486;2023-04-03T08:00:16;3.70;99.90
9305;DHT22;4690;52.422;13.486;2023-04-03T08:02:43;4.40;99.90
9305;DHT22;4690;52.422;13.486;2023-04-03T08:05:19;4.00;99.90
9305;DHT22;4690;52.422;13.486;2023-04-03T08:07:47;3.80;99.90
9305;DHT22;4690;52.422;13.486;2023-04-03T08:10:14;4.20;99.90
9305;DHT22;4690;52.422;13.486;2023-04-03T08:12:40;5.30;99.90
9305;DHT22;4690;52.422;13.486;2023-04-03T08:15:08;6.10;99.90
9305;DHT22;4690;52.422;13.486;2023-04-03T08:17:34;6.10;99.90
9305;DHT22;4690;52.422;13.486;2023-04-03T08:20:01;5.20;99.90
9305;DHT22;4690;52.422;13.486;2023-04-03T08:22:29;5.00;99.90
9305;DHT22;4690;52.422;13.486;2023-04-03T08:24:55;4.80;99.90
9305;DHT22;4690;52.422;13.486;2023-04-03T08:27:20;4.50;99.90
9305;DHT22;4690;52.422;13.486;2023-04-03T08:29:46;4.50;99.90
9305;DHT22;4690;52.422;13.486;2023-04-03T08:32:12;4.30;99.90
9305;DHT22;4690;52.422;13.486;2023-04-03T08:34:37;5.10;99.90
9305;DHT22;4690;52.422;13.486;2023-04-03T08:37:05;5.80;99.90
9305;DHT22;4690;52.422;13.486;2023-04-03T08:39:31;5.70;99.90
9305;DHT22;4690;52.422;13.486;2023-04-03T08:41:59;5.00;99.90
9305;DHT22;4690;52.422;13.486;2023-04-03T08:44:59;4.70;99.90
9305;DHT22;4690;52.422;13.486;2023-04-03T08:47:38;4.50;99.90
9305;DHT22;4690;52.422;13.486;2023-04-03T08:50:28;4.90;99.90
9305;DHT22;4690;52.422;13.486;2023-04-03T08:52:59;5.40;99.90
9305;DHT22;4690;52.422;13.486;2023-04-03T08:56:00;5.80;99.90
9305;DHT22;4690;52.422;13.486;2023-04-03T08:58:32;5.90;99.90
9305;DHT22;4690;52.422;13.486;2023-04-03T09:01:36;6.40;99.90
9305;DHT22;4690;52.422;13.486;2023-04-03T09:04:15;7.20;99.90
9305;DHT22;4690;52.422;13.486;2023-04-03T09:06:49;7.60;99.90
9305;DHT22;4690;52.422;13.486;2023-04-03T09:09:39;6.70;99.90
9305;DHT22;4690;52.422;13.486;2023-04-03T09:12:18;5.80;99.90
9305;DHT22;4690;52.422;13.486;2023-04-03T09:20:42;5.00;99.90
9305;DHT22;4690;52.422;13.486;2023-04-03T09:28:46;4.60;99.90
9305;DHT22;4690;52.422;13.486;2023-04-03T09:31:20;4.70;99.90
9305;DHT22;4690;52.422;13.486;2023-04-03T09:34:01;4.80;99.90
9305;DHT22;4690;52.422;13.486;2023-04-03T09:36:51;5.10;99.90
9305;DHT22;4690;52.422;13.486;2023-04-03T09:39:24;6.00;99.90
9305;DHT22;4690;52.422;13.486;2023-04-03T09:44:35;6.20;99.90
9305;DHT22;4690;52.422;13.486;2023-04-03T09:52:37;6.20;99.90
9305;DHT22;4690;52.422;13.486;2023-04-03T09:55:13;7.00;99.90
9305;DHT22;4690;52.422;13.486;2023-04-03T09:57:42;7.10;99.80
9305;DHT22;4690;52.422;13.486;2023-04-03T10:00:27;6.60;99.90
9305;DHT22;4690;52.422;13.486;2023-04-03T10:02:57;5.90;99.90
9305;DHT22;4690;52.422;13.486;2023-04-03T10:05:39;6.20;99.90
9305;DHT22;4690;52.422;13.486;2023-04-03T10:10:43;6.30;99.90
9305;DHT22;4690;52.422;13.486;2023-04-03T10:13:20;6.30;99.90
9305;DHT22;4690;52.422;13.486;2023-04-03T10:15:59;5.80;99.90
9305;DHT22;4690;52.422;13.486;2023-04-03T10:24:22;5.50;99.90
9305;DHT22;4690;52.422;13.486;2023-04-03T10:27:08;5.40;99.90
9305;DHT22;4690;52.422;13.486;2023-04-03T10:38:02;5.50;99.90
9305;DHT22;4690;52.422;13.486;2023-04-03T10:40:41;5.40;99.90
9305;DHT22;4690;52.422;13.486;2023-04-03T10:46:35;6.30;99.90
9305;DHT22;4690;52.422;13.486;2023-04-03T10:49:24;6.30;99.90
9305;DHT22;4690;52.422;13.486;2023-04-03T10:52:30;6.20;99.90
9305;DHT22;4690;52.422;13.486;2023-04-03T10:55:34;6.10;99.90
9305;DHT22;4690;52.422;13.486;2023-04-03T10:58:03;5.80;99.90
9305;DHT22;4690;52.422;13.486;2023-04-03T11:00:45;5.80;99.90
9305;DHT22;4690;52.422;13.486;2023-04-03T11:03:40;5.80;99.90
9305;DHT22;4690;52.422;13.486;2023-04-03T11:06:12;5.70;99.90
9305;DHT22;4690;52.422;13.486;2023-04-03T11:09:03;5.70;99.90
9305;DHT22;4690;52.422;13.486;2023-04-03T11:11:39;5.70;99.90
9305;DHT22;4690;52.422;13.486;2023-04-03T11:14:32;5.80;99.90
9305;DHT22;4690;52.422;13.486;2023-04-03T11:20:19;5.80;99.90
9305;DHT22;4690;52.422;13.486;2023-04-03T11:23:44;5.40;99.90
9305;DHT22;4690;52.422;13.486;2023-04-03T11:26:05;5.30;99.90
9305;DHT22;4690;52.422;13.486;2023-04-03T11:28:37;5.60;99.90
9305;DHT22;4690;52.422;13.486;2023-04-03T11:34:35;5.80;99.90
9305;DHT22;4690;52.422;13.486;2023-04-03T11:37:17;5.80;99.90
9305;DHT22;4690;52.422;13.486;2023-04-03T11:40:04;5.70;99.90
9305;DHT22;4690;52.422;13.486;2023-04-03T11:42:37;5.70;99.90
9305;DHT22;4690;52.422;13.486;2023-04-03T11:48:04;5.70;99.90
9305;DHT22;4690;52.422;13.486;2023-04-03T12:16:32;6.90;99.90
9305;DHT22;4690;52.422;13.486;2023-04-03T12:22:04;6.20;99.90
9305;DHT22;4690;52.422;13.486;2023-04-03T12:24:52;6.10;99.90
9305;DHT22;4690;52.422;13.486;2023-04-03T12:27:34;6.00;99.90
9305;DHT22;4690;52.422;13.486;2023-04-03T12:30:24;5.90;99.90
9305;DHT22;4690;52.422;13.486;2023-04-03T12:33:02;5.80;99.90
9305;DHT22;4690;52.422;13.486;2023-04-03T12:35:54;5.80;99.90
9305;DHT22;4690;52.422;13.486;2023-04-03T12:38:55;5.60;99.90
9305;DHT22;4690;52.422;13.486;2023-04-03T12:41:45;5.70;99.90
9305;DHT22;4690;52.422;13.486;2023-04-03T12:44:38;5.70;99.90
9305;DHT22;4690;52.422;13.486;2023-04-03T12:47:39;5.80;99.90
9305;DHT22;4690;52.422;13.486;2023-04-03T12:50:28;6.00;99.90
9305;DHT22;4690;52.422;13.486;2023-04-03T12:53:03;6.10;99.90
9305;DHT22;4690;52.422;13.486;2023-04-03T12:55:32;6.00;99.90
9305;DHT22;4690;52.422;13.486;2023-04-03T12:58:16;6.20;99.90
9305;DHT22;4690;52.422;13.486;2023-04-03T13:01:21;6.10;99.90
9305;DHT22;4690;52.422;13.486;2023-04-03T13:03:57;6.10;99.90
9305;DHT22;4690;52.422;13.486;2023-04-03T13:06:30;5.80;99.90
9305;DHT22;4690;52.422;13.486;2023-04-03T13:09:17;5.60;99.90
9305;DHT22;4690;52.422;13.486;2023-04-03T13:11:48;5.80;99.90
9305;DHT22;4690;52.422;13.486;2023-04-03T13:14:21;5.90;99.90
9305;DHT22;4690;52.422;13.486;2023-04-03T13:17:00;5.70;99.90
9305;DHT22;4690;52.422;13.486;2023-04-03T13:19:31;5.90;99.90
9305;DHT22;4690;52.422;13.486;2023-04-03T13:25:03;5.80;99.90
9305;DHT22;4690;52.422;13.486;2023-04-03T13:27:32;6.00;99.90
9305;DHT22;4690;52.422;13.486;2023-04-03T13:30:00;6.10;99.90
9305;DHT22;4690;52.422;13.486;2023-04-03T13:32:30;6.20;99.90
9305;DHT22;4690;52.422;13.486;2023-04-03T13:34:57;6.30;99.90
9305;DHT22;4690;52.422;13.486;2023-04-03T13:37:30;6.60;99.90
9305;DHT22;4690;52.422;13.486;2023-04-03T13:40:11;6.80;99.90
9305;DHT22;4690;52.422;13.486;2023-04-03T13:42:40;6.80;99.90
9305;DHT22;4690;52.422;13.486;2023-04-03T13:47:41;6.60;99.90
9305;DHT22;4690;52.422;13.486;2023-04-03T13:55:54;5.80;99.90
9305;DHT22;4690;52.422;13.486;2023-04-03T13:58:33;5.60;99.90
9305;DHT22;4690;52.422;13.486;2023-04-03T14:06:14;5.70;99.90
9305;DHT22;4690;52.422;13.486;2023-04-03T14:08:43;5.80;99.90
9305;DHT22;4690;52.422;13.486;2023-04-03T14:11:15;6.00;99.90
9305;DHT22;4690;52.422;13.486;2023-04-03T14:13:43;6.10;99.90
9305;DHT22;4690;52.422;13.486;2023-04-03T14:16:22;6.20;99.90
9305;DHT22;4690;52.422;13.486;2023-04-03T14:18:51;6.10;99.90
9305;DHT22;4690;52.422;13.486;2023-04-03T14:21:19;6.50;99.90
9305;DHT22;4690;52.422;13.486;2023-04-03T14:23:46;6.50;99.90
9305;DHT22;4690;52.422;13.486;2023-04-03T14:26:16;6.30;99.90
9305;DHT22;4690;52.422;13.486;2023-04-03T14:28:48;6.20;99.90
9305;DHT22;4690;52.422;13.486;2023-04-03T14:31:17;6.50;99.90
9305;DHT22;4690;52.422;13.486;2023-04-03T14:33:44;6.60;99.90
9305;DHT22;4690;52.422;13.486;2023-04-03T14:36:19;6.60;99.90
9305;DHT22;4690;52.422;13.486;2023-04-03T14:38:48;6.50;99.90
9305;DHT22;4690;52.422;13.486;2023-04-03T14:41:16;6.30;99.90
9305;DHT22;4690;52.422;13.486;2023-04-03T14:43:46;6.30;99.90
9305;DHT22;4690;52.422;13.486;2023-04-03T14:48:45;6.60;99.90
9305;DHT22;4690;52.422;13.486;2023-04-03T14:51:13;6.70;99.90
9305;DHT22;4690;52.422;13.486;2023-04-03T14:53:41;6.60;99.90
9305;DHT22;4690;52.422;13.486;2023-04-03T14:56:29;6.40;99.90
9305;DHT22;4690;52.422;13.486;2023-04-03T14:58:58;6.30;99.90
9305;DHT22;4690;52.422;13.486;2023-04-03T15:01:27;6.10;99.90
9305;DHT22;4690;52.422;13.486;2023-04-03T15:03:54;5.90;99.90
9305;DHT22;4690;52.422;13.486;2023-04-03T15:06:20;5.80;99.90
9305;DHT22;4690;52.422;13.486;2023-04-03T15:08:48;5.70;99.90
9305;DHT22;4690;52.422;13.486;2023-04-03T15:11:14;5.60;99.90
9305;DHT22;4690;52.422;13.486;2023-04-03T15:13:41;5.50;99.90
9305;DHT22;4690;52.422;13.486;2023-04-03T15:16:17;5.60;99.90
9305;DHT22;4690;52.422;13.486;2023-04-03T15:18:45;5.60;99.90
9305;DHT22;4690;52.422;13.486;2023-04-03T15:21:12;5.60;99.90
9305;DHT22;4690;52.422;13.486;2023-04-03T15:23:38;5.60;99.90
9305;DHT22;4690;52.422;13.486;2023-04-03T15:26:04;5.50;99.90
9305;DHT22;4690;52.422;13.486;2023-04-03T15:28:34;5.30;99.90
9305;DHT22;4690;52.422;13.486;2023-04-03T15:31:10;5.20;99.90
9305;DHT22;4690;52.422;13.486;2023-04-03T15:33:36;5.20;99.90
9305;DHT22;4690;52.422;13.486;2023-04-03T15:36:03;5.00;99.90
9305;DHT22;4690;52.422;13.486;2023-04-03T15:38:30;5.00;99.90
9305;DHT22;4690;52.422;13.486;2023-04-03T15:40:56;5.10;99.90
9305;DHT22;4690;52.422;13.486;2023-04-03T15:43:22;5.10;99.90
9305;DHT22;4690;52.422;13.486;2023-04-03T15:45:48;5.00;99.90
9305;DHT22;4690;52.422;13.486;2023-04-03T15:48:14;5.00;99.90
9305;DHT22;4690;52.422;13.486;2023-04-03T15:50:41;5.10;99.90
9305;DHT22;4690;52.422;13.486;2023-04-03T15:53:08;5.10;99.90
9305;DHT22;4690;52.422;13.486;2023-04-03T15:55:36;5.20;99.90
9305;DHT22;4690;52.422;13.486;2023-04-03T15:58:03;5.30;99.90
9305;DHT22;4690;52.422;13.486;2023-04-03T16:00:30;5.30;99.90
9305;DHT22;4690;52.422;13.486;2023-04-03T16:03:04;5.20;99.90
9305;DHT22;4690;52.422;13.486;2023-04-03T16:05:32;5.10;99.90
9305;DHT22;4690;52.422;13.486;2023-04-03T16:08:00;5.00;99.90
9305;DHT22;4690;52.422;13.486;2023-04-03T16:10:27;4.90;99.90
9305;DHT22;4690;52.422;13.486;2023-04-03T16:12:53;4.80;99.90
9305;DHT22;4690;52.422;13.486;2023-04-03T16:15:19;4.70;99.90
9305;DHT22;4690;52.422;13.486;2023-04-03T16:17:45;4.70;99.90
9305;DHT22;4690;52.422;13.486;2023-04-03T16:20:12;4.80;99.90
9305;DHT22;4690;52.422;13.486;2023-04-03T16:22:39;4.70;99.90
9305;DHT22;4690;52.422;13.486;2023-04-03T16:25:07;4.70;99.90
9305;DHT22;4690;52.422;13.486;2023-04-03T16:27:33;4.90;99.90
9305;DHT22;4690;52.422;13.486;2023-04-03T16:30:00;5.00;99.90
9305;DHT22;4690;52.422;13.486;2023-04-03T16:32:28;5.00;99.90
9305;DHT22;4690;52.422;13.486;2023-04-03T16:34:56;5.00;99.90
9305;DHT22;4690;52.422;13.486;2023-04-03T16:37:23;5.20;99.90
9305;DHT22;4690;52.422;13.486;2023-04-03T16:39:49;5.10;99.90
9305;DHT22;4690;52.422;13.486;2023-04-03T16:42:15;5.10;99.90
9305;DHT22;4690;52.422;13.486;2023-04-03T16:44:41;5.10;99.90
9305;DHT22;4690;52.422;13.486;2023-04-03T16:47:07;5.00;99.90
9305;DHT22;4690;52.422;13.486;2023-04-03T16:49:34;4.90;99.90
9305;DHT22;4690;52.422;13.486;2023-04-03T16:52:01;4.90;99.90
9305;DHT22;4690;52.422;13.486;2023-04-03T16:54:28;5.00;99.90
9305;DHT22;4690;52.422;13.486;2023-04-03T16:56:55;4.90;99.90
9305;DHT22;4690;52.422;13.486;2023-04-03T16:59:21;4.90;99.90
9305;DHT22;4690;52.422;13.486;2023-04-03T17:01:48;4.90;99.90
9305;DHT22;4690;52.422;13.486;2023-04-03T17:04:14;4.80;99.90
9305;DHT22;4690;52.422;13.486;2023-04-03T17:06:39;4.70;99.90
9305;DHT22;4690;52.422;13.486;2023-04-03T17:09:06;4.70;99.90
9305;DHT22;4690;52.422;13.486;2023-04-03T17:11:32;4.70;99.90
9305;DHT22;4690;52.422;13.486;2023-04-03T17:13:58;4.60;99.90
9305;DHT22;4690;52.422;13.486;2023-04-03T17:16:25;4.60;99.90
9305;DHT22;4690;52.422;13.486;2023-04-03T17:18:52;4.60;99.90
9305;DHT22;4690;52.422;13.486;2023-04-03T17:21:19;4.60;99.90
9305;DHT22;4690;52.422;13.486;2023-04-03T17:23:49;4.50;99.90
9305;DHT22;4690;52.422;13.486;2023-04-03T17:26:18;4.60;99.90
9305;DHT22;4690;52.422;13.486;2023-04-03T17:28:44;4.50;99.90
9305;DHT22;4690;52.422;13.486;2023-04-03T17:31:09;4.50;99.90
9305;DHT22;4690;52.422;13.486;2023-04-03T17:33:35;4.50;99.90
9305;DHT22;4690;52.422;13.486;2023-04-03T17:36:02;4.50;99.90
9305;DHT22;4690;52.422;13.486;2023-04-03T17:38:30;4.50;99.90
9305;DHT22;4690;52.422;13.486;2023-04-03T17:40:58;4.50;99.90
9305;DHT22;4690;52.422;13.486;2023-04-03T17:43:26;4.40;99.90
9305;DHT22;4690;52.422;13.486;2023-04-03T17:45:53;4.40;99.90
9305;DHT22;4690;52.422;13.486;2023-04-03T17:48:28;4.40;99.90
9305;DHT22;4690;52.422;13.486;2023-04-03T17:50:55;4.40;99.90
9305;DHT22;4690;52.422;13.486;2023-04-03T17:53:21;4.40;99.90
9305;DHT22;4690;52.422;13.486;2023-04-03T17:55:46;4.40;99.90
9305;DHT22;4690;52.422;13.486;2023-04-03T17:58:12;4.40;99.90
9305;DHT22;4690;52.422;13.486;2023-04-03T18:00:38;4.30;99.90